Time;durP1;ratioP1;P1;durP2;ratioP2;P2;SDS_P1;SDS_P2;PMS_P1;PMS_P2;Temp;Humidity;BMP_temperature;BMP_pressure;BME280_temperature;BME280_humidity;BME280_pressure;Samples;Min_cycle;Max_cycle;Signal;HPM_P1;HPM_P2
2022/01/04 00:00:12;;;;;;;36.25;12.13;;;8.20;99.90;;;;;;5051797;28;20086;-43
2022/01/04 00:02:37;;;;;;;38.70;12.82;;;7.50;99.90;;;;;;5051914;28;20469;-43
2022/01/04 00:05:04;;;;;;;40.65;12.75;;;7.80;99.90;;;;;;5069341;28;20072;-42
2022/01/04 00:07:31;;;;;;;36.42;12.63;;;7.40;99.90;;;;;;5071904;28;20040;-44
2022/01/04 00:09:57;;;;;;;28.55;11.68;;;7.30;99.90;;;;;;5073286;28;20067;-43
2022/01/04 00:15:08;;;;;;;32.30;11.63;;;7.20;99.90;;;;;;5073683;28;20054;-43
2022/01/04 00:17:34;;;;;;;41.65;13.43;;;7.40;99.90;;;;;;5073267;28;20032;-43
2022/01/04 00:20:00;;;;;;;32.40;11.82;;;7.40;99.90;;;;;;5073517;28;20087;-44
2022/01/04 00:22:25;;;;;;;28.63;10.63;;;7.70;99.90;;;;;;5073517;28;20064;-43
2022/01/04 00:24:51;;;;;;;40.05;11.23;;;8.10;99.90;;;;;;5073621;28;20163;-44
2022/01/04 00:27:17;;;;;;;29.58;10.13;;;7.40;99.90;;;;;;5073169;28;20037;-43
2022/01/04 00:29:43;;;;;;;38.90;10.48;;;7.60;99.90;;;;;;5073350;28;20094;-43
2022/01/04 00:32:08;;;;;;;29.80;9.30;;;8.70;99.90;;;;;;5073228;28;20080;-44
2022/01/04 00:34:34;;;;;;;35.70;9.95;;;8.70;99.90;;;;;;5073135;28;20036;-43
2022/01/04 00:37:00;;;;;;;34.08;9.20;;;7.70;99.90;;;;;;5072612;28;20040;-43
2022/01/04 00:39:26;;;;;;;26.30;8.98;;;7.70;99.90;;;;;;5072503;28;20086;-43
2022/01/04 00:41:52;;;;;;;26.80;8.77;;;7.50;99.90;;;;;;5072273;28;20490;-43
2022/01/04 00:44:17;;;;;;;31.75;9.88;;;7.60;99.90;;;;;;5072689;28;20047;-43
2022/01/04 00:46:43;;;;;;;38.30;9.38;;;7.50;99.90;;;;;;5073059;28;20480;-42
2022/01/04 00:49:10;;;;;;;34.38;9.02;;;8.70;99.90;;;;;;5054559;28;20067;-43
2022/01/04 00:51:41;;;;;;;30.20;9.88;;;7.50;99.90;;;;;;5055004;28;20101;-43
2022/01/04 00:54:07;;;;;;;26.45;6.68;;;7.40;99.90;;;;;;5072772;28;20068;-43
2022/01/04 00:56:33;;;;;;;29.38;9.90;;;7.30;99.90;;;;;;5072515;28;20486;-44
2022/01/04 00:58:59;;;;;;;32.00;9.25;;;7.40;99.90;;;;;;5072202;28;20033;-43
2022/01/04 01:01:25;;;;;;;35.40;9.70;;;8.30;99.90;;;;;;5072420;28;20036;-43
2022/01/04 01:03:51;;;;;;;29.92;9.18;;;7.40;99.90;;;;;;5072156;28;20516;-43
2022/01/04 01:06:17;;;;;;;32.35;10.00;;;8.30;99.90;;;;;;5072146;28;20040;-42
2022/01/04 01:08:43;;;;;;;27.83;8.02;;;7.20;99.90;;;;;;5072281;28;20040;-43
2022/01/04 01:11:10;;;;;;;32.35;8.48;;;7.20;99.90;;;;;;5072170;28;20514;-43
2022/01/04 01:13:36;;;;;;;37.03;9.45;;;7.60;99.90;;;;;;5054441;28;20055;-42
2022/01/04 01:16:03;;;;;;;33.53;8.70;;;8.10;99.90;;;;;;5071901;28;20049;-43
2022/01/04 01:18:28;;;;;;;40.72;9.60;;;7.30;99.90;;;;;;5071549;28;20044;-43
2022/01/04 01:20:54;;;;;;;26.33;9.25;;;7.80;99.90;;;;;;5071915;28;20441;-43
2022/01/04 01:23:21;;;;;;;29.65;9.23;;;7.40;99.90;;;;;;5072011;28;20609;-43
2022/01/04 01:25:47;;;;;;;37.50;10.52;;;8.00;99.90;;;;;;5072270;28;20127;-43
2022/01/04 01:28:14;;;;;;;30.27;9.68;;;7.80;99.90;;;;;;5071855;28;20123;-44
2022/01/04 01:30:41;;;;;;;31.17;9.77;;;7.80;99.90;;;;;;5072221;28;20044;-44
2022/01/04 01:33:08;;;;;;;39.35;11.70;;;7.40;99.90;;;;;;5071730;28;20040;-43
2022/01/04 01:35:35;;;;;;;30.67;10.48;;;7.30;99.90;;;;;;5071968;28;20068;-43
2022/01/04 01:38:01;;;;;;;36.45;10.35;;;7.30;99.90;;;;;;5076757;28;20053;-43
2022/01/04 01:40:27;;;;;;;29.55;10.25;;;7.00;99.90;;;;;;5091608;28;20451;-43
2022/01/04 01:42:53;;;;;;;44.22;11.52;;;7.70;99.90;;;;;;5092566;28;20048;-43
2022/01/04 01:45:21;;;;;;;34.25;10.52;;;7.20;99.90;;;;;;5091646;28;20046;-43
2022/01/04 01:47:47;;;;;;;30.45;9.68;;;7.10;99.90;;;;;;5092248;28;20055;-43
2022/01/04 01:50:13;;;;;;;33.90;11.50;;;7.00;99.90;;;;;;5092057;28;20040;-42
2022/01/04 01:52:41;;;;;;;37.15;10.82;;;7.10;99.90;;;;;;5092406;28;20051;-44
2022/01/04 01:55:09;;;;;;;30.50;11.43;;;7.10;99.90;;;;;;5091829;28;20093;-43
2022/01/04 01:57:35;;;;;;;36.50;10.65;;;7.00;99.90;;;;;;5092250;28;20085;-45
2022/01/04 02:00:00;;;;;;;41.15;11.35;;;8.10;99.90;;;;;;5091820;28;20086;-43
2022/01/04 02:02:26;;;;;;;33.47;10.55;;;7.10;99.90;;;;;;5092390;28;20502;-42
2022/01/04 02:04:52;;;;;;;33.92;12.13;;;7.10;99.90;;;;;;5092087;28;20394;-43
2022/01/04 02:07:20;;;;;;;31.15;10.75;;;6.90;99.90;;;;;;5091412;28;20049;-42
2022/01/04 02:09:54;;;;;;;38.85;10.95;;;7.10;99.90;;;;;;5091522;28;20115;-42
2022/01/04 02:12:21;;;;;;;34.13;12.90;;;7.10;99.90;;;;;;5091730;28;20493;-42
2022/01/04 02:14:49;;;;;;;36.33;12.75;;;7.90;99.90;;;;;;5091754;28;20169;-43
2022/01/04 02:17:15;;;;;;;34.75;12.38;;;7.50;99.90;;;;;;5091634;28;20379;-42
2022/01/04 02:19:40;;;;;;;43.70;14.32;;;7.10;99.90;;;;;;5091570;28;20047;-43
2022/01/04 02:22:06;;;;;;;41.15;13.07;;;7.80;99.90;;;;;;5091209;28;20039;-42
2022/01/04 02:24:33;;;;;;;37.40;12.45;;;7.20;99.90;;;;;;5091433;28;20085;-43
2022/01/04 02:26:59;;;;;;;32.13;12.10;;;7.20;99.90;;;;;;5091481;28;20406;-43
2022/01/04 02:29:26;;;;;;;43.53;13.02;;;7.20;99.90;;;;;;5091182;28;20062;-43
2022/01/04 02:31:53;;;;;;;33.30;13.35;;;7.50;99.90;;;;;;5091694;28;20040;-44
2022/01/04 02:34:19;;;;;;;44.92;14.98;;;7.20;99.90;;;;;;5091344;28;20501;-43
2022/01/04 02:36:44;;;;;;;34.60;12.18;;;8.10;99.90;;;;;;5091580;28;20047;-43
2022/01/04 02:39:10;;;;;;;38.72;13.43;;;7.20;99.90;;;;;;5087879;28;20052;-43
2022/01/04 02:41:36;;;;;;;46.63;15.32;;;7.20;99.90;;;;;;5090979;28;20040;-43
2022/01/04 02:44:02;;;;;;;44.20;13.85;;;7.30;99.90;;;;;;5091224;28;20044;-43
2022/01/04 02:46:27;;;;;;;46.40;15.88;;;7.20;99.90;;;;;;5090668;28;20389;-43
2022/01/04 02:48:53;;;;;;;45.67;15.73;;;7.30;99.90;;;;;;5090901;28;20040;-42
2022/01/04 02:51:19;;;;;;;40.80;16.60;;;7.40;99.90;;;;;;5090635;28;20127;-43
2022/01/04 02:53:45;;;;;;;40.13;14.60;;;6.80;99.90;;;;;;5090880;28;20050;-43
2022/01/04 02:56:13;;;;;;;41.28;14.23;;;7.20;99.90;;;;;;5090741;28;20131;-45
2022/01/04 02:58:39;;;;;;;44.72;17.20;;;8.20;99.90;;;;;;5090884;28;20044;-43
2022/01/04 03:01:05;;;;;;;35.45;13.40;;;7.30;99.90;;;;;;5090854;28;20062;-43
2022/01/04 03:03:31;;;;;;;42.95;15.48;;;6.90;99.90;;;;;;5090491;28;20045;-43
2022/01/04 03:05:57;;;;;;;40.95;13.98;;;7.10;99.90;;;;;;5090366;28;20044;-42
2022/01/04 03:08:23;;;;;;;41.83;15.15;;;6.90;99.90;;;;;;5090405;28;20569;-44
2022/01/04 03:10:49;;;;;;;41.42;15.88;;;7.10;99.90;;;;;;5090249;28;20035;-44
2022/01/04 03:13:16;;;;;;;47.45;15.27;;;7.20;99.90;;;;;;5090441;28;20455;-44
2022/01/04 03:15:43;;;;;;;58.22;15.80;;;7.20;99.90;;;;;;5090497;28;20119;-43
2022/01/04 03:18:09;;;;;;;35.50;14.05;;;7.20;99.90;;;;;;5090417;28;20076;-46
2022/01/04 03:20:35;;;;;;;41.22;14.43;;;7.20;99.90;;;;;;5089954;28;20505;-44
2022/01/04 03:23:00;;;;;;;37.13;14.27;;;8.20;99.90;;;;;;5090229;28;20040;-44
2022/01/04 03:25:27;;;;;;;42.75;13.77;;;7.00;99.90;;;;;;5089898;28;20498;-43
2022/01/04 03:27:52;;;;;;;32.42;14.43;;;7.20;99.90;;;;;;5090263;28;20043;-43
2022/01/04 03:30:18;;;;;;;40.22;15.38;;;7.20;99.90;;;;;;5090136;28;20450;-44
2022/01/04 03:32:44;;;;;;;41.95;15.85;;;7.10;99.90;;;;;;5090423;28;20040;-44
2022/01/04 03:35:10;;;;;;;43.17;16.23;;;7.40;99.90;;;;;;5090093;28;20097;-43
2022/01/04 03:37:36;;;;;;;51.00;18.23;;;7.20;99.90;;;;;;5086829;28;20094;-43
2022/01/04 03:40:03;;;;;;;48.80;18.33;;;7.10;99.90;;;;;;5089848;28;20139;-43
2022/01/04 03:42:29;;;;;;;53.85;18.27;;;7.20;99.90;;;;;;5094478;28;20044;-43
2022/01/04 03:44:54;;;;;;;47.60;17.73;;;7.20;99.90;;;;;;5097085;28;20463;-43
2022/01/04 03:47:20;;;;;;;40.42;17.42;;;7.10;99.90;;;;;;5096656;28;20125;-42
2022/01/04 03:49:46;;;;;;;46.08;17.88;;;7.50;99.90;;;;;;5097004;28;20493;-42
2022/01/04 03:52:11;;;;;;;44.15;18.30;;;7.10;99.90;;;;;;5097238;28;20040;-43
2022/01/04 03:54:37;;;;;;;40.85;17.60;;;7.60;99.90;;;;;;5096740;28;20047;-43
2022/01/04 03:57:03;;;;;;;47.58;19.98;;;7.60;99.90;;;;;;5096998;28;20076;-43
2022/01/04 03:59:29;;;;;;;43.22;19.23;;;7.10;99.90;;;;;;5096796;28;20043;-43
2022/01/04 04:01:54;;;;;;;48.05;17.30;;;7.00;99.90;;;;;;5097099;28;20104;-43
2022/01/04 04:04:21;;;;;;;51.35;18.83;;;7.90;99.90;;;;;;5097036;28;20449;-43
2022/01/04 04:06:47;;;;;;;44.42;19.33;;;7.00;99.90;;;;;;5097236;28;20044;-42
2022/01/04 04:09:12;;;;;;;46.17;20.17;;;7.00;99.90;;;;;;5097253;28;20047;-42
2022/01/04 04:11:38;;;;;;;48.50;19.27;;;7.00;99.90;;;;;;5096884;28;20433;-42
2022/01/04 04:14:04;;;;;;;49.45;19.73;;;8.00;99.90;;;;;;5097190;28;20108;-44
2022/01/04 04:16:30;;;;;;;44.88;18.27;;;7.00;99.90;;;;;;5096480;28;20055;-42
2022/01/04 04:18:55;;;;;;;44.67;19.25;;;7.10;99.90;;;;;;5096761;28;20047;-42
2022/01/04 04:21:21;;;;;;;43.58;19.23;;;7.10;99.90;;;;;;5096515;28;20043;-42
2022/01/04 04:23:47;;;;;;;51.28;20.75;;;7.10;99.90;;;;;;5096617;28;20047;-43
2022/01/04 04:26:12;;;;;;;53.15;20.20;;;7.10;99.90;;;;;;5096518;28;20047;-44
2022/01/04 04:28:38;;;;;;;40.90;19.83;;;6.90;99.90;;;;;;5096294;28;20119;-43
2022/01/04 04:31:05;;;;;;;54.78;21.02;;;7.10;99.90;;;;;;5096222;28;20044;-43
2022/01/04 04:33:31;;;;;;;49.10;21.27;;;7.10;99.90;;;;;;5096498;28;20036;-44
2022/01/04 04:35:57;;;;;;;44.78;19.38;;;8.00;99.90;;;;;;5096796;28;20044;-43
2022/01/04 04:38:23;;;;;;;54.13;20.92;;;7.20;99.90;;;;;;5093373;28;20088;-43
2022/01/04 04:40:49;;;;;;;52.20;19.95;;;7.20;99.90;;;;;;5096358;28;20399;-43
2022/01/04 04:43:14;;;;;;;49.60;19.67;;;7.30;99.90;;;;;;5096428;28;20060;-43
2022/01/04 04:45:40;;;;;;;46.78;18.73;;;7.30;99.90;;;;;;5096633;28;20055;-45
2022/01/04 04:48:06;;;;;;;54.53;22.65;;;7.70;99.90;;;;;;5078454;28;20470;-45
2022/01/04 04:50:33;;;;;;;51.30;21.58;;;7.60;99.90;;;;;;5096262;28;20474;-43
2022/01/04 04:52:59;;;;;;;51.85;21.50;;;7.20;99.90;;;;;;5094570;28;20443;-45
2022/01/04 04:55:25;;;;;;;65.57;23.17;;;7.20;99.90;;;;;;5093256;28;20059;-44
2022/01/04 04:57:51;;;;;;;47.83;22.15;;;7.30;99.90;;;;;;5092921;28;20065;-43
2022/01/04 05:00:16;;;;;;;51.80;20.95;;;7.60;99.90;;;;;;5093258;28;20032;-42
2022/01/04 05:02:42;;;;;;;59.97;23.60;;;7.30;99.90;;;;;;5092748;28;20040;-43
2022/01/04 05:05:09;;;;;;;47.63;20.52;;;7.30;99.90;;;;;;5093017;28;20035;-43
2022/01/04 05:07:35;;;;;;;58.58;22.88;;;7.30;99.90;;;;;;5093034;28;20055;-44
2022/01/04 05:10:05;;;;;;;53.80;22.98;;;8.00;99.90;;;;;;5092790;28;20408;-43
2022/01/04 05:12:31;;;;;;;51.22;21.30;;;7.60;99.90;;;;;;5092726;28;20039;-42
2022/01/04 05:14:57;;;;;;;49.58;22.58;;;8.10;99.90;;;;;;5092849;28;20555;-43
2022/01/04 05:17:22;;;;;;;53.17;23.33;;;7.20;99.90;;;;;;5092817;28;20083;-43
2022/01/04 05:19:48;;;;;;;49.35;22.52;;;7.30;99.90;;;;;;5092767;28;20422;-43
2022/01/04 05:22:14;;;;;;;46.53;21.58;;;7.30;99.90;;;;;;5092487;28;20046;-43
2022/01/04 05:24:40;;;;;;;45.63;23.13;;;7.90;99.90;;;;;;5092677;28;20389;-44
2022/01/04 05:27:06;;;;;;;49.25;21.08;;;7.20;99.90;;;;;;5092509;28;20055;-44
2022/01/04 05:29:32;;;;;;;66.88;26.35;;;7.40;99.90;;;;;;5092661;28;20347;-43
2022/01/04 05:31:57;;;;;;;43.25;21.23;;;8.30;99.90;;;;;;5092416;28;20051;-43
2022/01/04 05:34:25;;;;;;;61.72;24.67;;;7.40;99.90;;;;;;5092621;28;20036;-44
2022/01/04 05:36:51;;;;;;;48.28;21.70;;;7.40;99.90;;;;;;5091968;28;20048;-43
2022/01/04 05:39:17;;;;;;;54.15;23.00;;;7.40;99.90;;;;;;5088953;28;20067;-43
2022/01/04 05:41:43;;;;;;;46.72;22.15;;;7.70;99.90;;;;;;5092075;28;20062;-43
2022/01/04 05:44:09;;;;;;;55.05;23.73;;;7.30;99.90;;;;;;5092449;28;20043;-43
2022/01/04 05:46:34;;;;;;;47.20;23.63;;;7.30;99.90;;;;;;5074227;28;20048;-43
2022/01/04 05:49:00;;;;;;;52.65;22.58;;;7.20;99.90;;;;;;5092207;28;20047;-43
2022/01/04 05:51:26;;;;;;;47.33;23.85;;;7.30;99.90;;;;;;5091682;28;20040;-44
2022/01/04 05:53:51;;;;;;;53.08;23.33;;;7.40;99.90;;;;;;5091678;28;20070;-43
2022/01/04 05:56:17;;;;;;;53.70;24.20;;;7.30;99.90;;;;;;5091930;28;20121;-44
2022/01/04 05:58:43;;;;;;;48.90;22.42;;;7.10;99.90;;;;;;5091804;28;20043;-43
2022/01/04 06:01:08;;;;;;;50.53;21.42;;;7.30;99.90;;;;;;5091990;28;20080;-44
2022/01/04 06:03:34;;;;;;;52.08;22.17;;;7.50;99.90;;;;;;5091878;28;20044;-43
2022/01/04 06:06:00;;;;;;;46.38;22.13;;;7.20;99.90;;;;;;5073342;28;20040;-43
2022/01/04 06:08:32;;;;;;;39.45;20.83;;;7.40;99.90;;;;;;5091562;28;20390;-43
2022/01/04 06:10:58;;;;;;;49.92;23.60;;;8.20;99.90;;;;;;5073171;28;20032;-43
2022/01/04 06:16:08;;;;;;;52.10;22.63;;;7.30;99.90;;;;;;5091700;28;20083;-44
2022/01/04 06:18:34;;;;;;;55.95;22.73;;;7.70;99.90;;;;;;5091413;28;20072;-43
2022/01/04 06:21:00;;;;;;;43.85;22.02;;;7.30;99.90;;;;;;5091288;28;20032;-43
2022/01/04 06:23:26;;;;;;;50.05;24.25;;;7.30;99.90;;;;;;5091189;28;20096;-43
2022/01/04 06:25:52;;;;;;;51.83;22.70;;;7.20;99.90;;;;;;5091071;28;20087;-43
2022/01/04 06:28:19;;;;;;;53.38;22.95;;;7.30;99.90;;;;;;5091500;28;20047;-42
2022/01/04 06:30:46;;;;;;;49.97;23.67;;;7.20;99.90;;;;;;5091138;28;20513;-44
2022/01/04 06:33:11;;;;;;;58.95;24.88;;;8.30;99.90;;;;;;5091127;28;20059;-43
2022/01/04 06:35:37;;;;;;;51.40;24.20;;;7.30;99.90;;;;;;5091111;28;20075;-43
2022/01/04 06:38:06;;;;;;;57.47;24.05;;;7.30;99.90;;;;;;5087554;28;20097;-44
2022/01/04 06:40:32;;;;;;;44.78;21.70;;;7.20;99.90;;;;;;5090865;28;20060;-44
2022/01/04 06:42:58;;;;;;;51.45;23.15;;;7.30;99.90;;;;;;5091136;28;20047;-43
2022/01/04 06:45:23;;;;;;;43.85;22.77;;;8.20;99.90;;;;;;5091016;28;20074;-43
2022/01/04 06:47:49;;;;;;;53.72;25.10;;;7.30;99.90;;;;;;5091114;28;20114;-43
2022/01/04 06:50:15;;;;;;;56.22;24.38;;;7.40;99.90;;;;;;5091472;28;20152;-43
2022/01/04 06:52:42;;;;;;;58.38;24.63;;;7.40;99.90;;;;;;5090989;28;20040;-43
2022/01/04 06:55:08;;;;;;;45.13;22.92;;;7.30;99.90;;;;;;5091004;28;20405;-43
2022/01/04 06:57:34;;;;;;;44.25;23.80;;;7.40;99.90;;;;;;5090648;28;20478;-42
2022/01/04 07:00:00;;;;;;;51.97;22.15;;;7.60;99.90;;;;;;5090627;28;20039;-44
2022/01/04 07:02:26;;;;;;;45.75;20.70;;;7.70;99.90;;;;;;5090452;28;20047;-43
2022/01/04 07:04:51;;;;;;;45.47;20.05;;;7.30;99.90;;;;;;5090513;28;20085;-42
2022/01/04 07:07:17;;;;;;;43.95;20.85;;;8.30;99.90;;;;;;5090788;28;20047;-43
2022/01/04 07:09:43;;;;;;;38.33;19.35;;;7.20;99.90;;;;;;5090620;28;20473;-43
2022/01/04 07:12:09;;;;;;;41.35;20.15;;;7.00;99.90;;;;;;5090175;28;20469;-43
2022/01/04 07:14:35;;;;;;;44.45;22.08;;;7.10;99.90;;;;;;5090404;28;20048;-43
2022/01/04 07:17:01;;;;;;;44.17;20.30;;;7.10;99.90;;;;;;5089443;28;20050;-44
2022/01/04 07:19:26;;;;;;;46.97;21.20;;;7.10;99.90;;;;;;5090499;28;20136;-44
2022/01/04 07:21:52;;;;;;;43.10;20.75;;;7.40;99.90;;;;;;5090363;28;20036;-44
2022/01/04 07:24:18;;;;;;;51.58;23.40;;;8.30;99.90;;;;;;5090616;28;20043;-42
2022/01/04 07:26:43;;;;;;;45.58;20.77;;;7.10;99.90;;;;;;5090560;28;20044;-43
2022/01/04 07:29:09;;;;;;;56.00;22.63;;;7.10;99.90;;;;;;5090089;28;20036;-44
2022/01/04 07:31:35;;;;;;;46.45;21.98;;;6.90;99.90;;;;;;5090133;28;20047;-43
2022/01/04 07:34:00;;;;;;;53.35;25.75;;;7.70;99.90;;;;;;5089834;28;20044;-43
2022/01/04 07:36:29;;;;;;;48.58;23.58;;;7.00;99.90;;;;;;5090353;28;20044;-43
2022/01/04 07:38:55;;;;;;;52.60;25.17;;;7.00;99.90;;;;;;5086994;28;20089;-42
2022/01/04 07:41:21;;;;;;;54.08;25.95;;;7.00;99.90;;;;;;5090796;28;20116;-42
2022/01/04 07:43:47;;;;;;;54.95;25.83;;;6.90;99.90;;;;;;5090309;28;20486;-42
2022/01/04 07:46:13;;;;;;;62.85;25.40;;;7.00;99.90;;;;;;5089784;28;20089;-43
2022/01/04 07:48:38;;;;;;;54.38;25.58;;;7.00;99.90;;;;;;5090136;28;20044;-43
2022/01/04 07:51:04;;;;;;;53.67;27.58;;;7.00;99.90;;;;;;5089945;28;20044;-43
2022/01/04 07:53:30;;;;;;;56.97;27.92;;;7.00;99.90;;;;;;5090494;28;20075;-43
2022/01/04 07:55:56;;;;;;;53.03;28.25;;;7.10;99.90;;;;;;5089882;28;20036;-43
2022/01/04 07:58:23;;;;;;;53.97;25.38;;;7.40;99.90;;;;;;5089974;28;20093;-43
2022/01/04 08:00:49;;;;;;;52.85;25.00;;;7.10;99.90;;;;;;5090284;28;20097;-42
2022/01/04 08:03:14;;;;;;;43.35;23.40;;;7.10;99.90;;;;;;5090327;28;20040;-43
2022/01/04 08:05:40;;;;;;;46.90;25.00;;;7.70;99.90;;;;;;5090394;28;20050;-42
2022/01/04 08:08:06;;;;;;;41.58;21.80;;;7.60;99.90;;;;;;5071740;28;20044;-42
2022/01/04 08:10:32;;;;;;;39.38;20.90;;;7.40;99.90;;;;;;5090192;28;20040;-42
2022/01/04 08:12:57;;;;;;;45.92;22.70;;;7.20;99.90;;;;;;5089917;28;20036;-43
2022/01/04 08:15:23;;;;;;;47.20;23.05;;;6.80;99.90;;;;;;5090043;28;20147;-42
2022/01/04 08:17:49;;;;;;;40.50;21.20;;;7.10;99.90;;;;;;5090273;28;20040;-42
2022/01/04 08:20:17;;;;;;;44.47;23.40;;;7.50;99.90;;;;;;5089900;28;20075;-42
2022/01/04 08:22:43;;;;;;;41.22;23.15;;;6.70;99.90;;;;;;5079702;28;20049;-42
2022/01/04 08:25:10;;;;;;;50.75;25.30;;;7.10;99.90;;;;;;5069171;28;20579;-43
2022/01/04 08:27:37;;;;;;;48.47;24.75;;;7.20;99.90;;;;;;5052469;28;20032;-42
2022/01/04 08:30:05;;;;;;;48.42;24.30;;;8.30;99.90;;;;;;5073348;28;20040;-44
2022/01/04 08:32:31;;;;;;;53.40;26.13;;;7.20;99.90;;;;;;5072966;28;20076;-44
2022/01/04 08:34:56;;;;;;;52.33;25.98;;;7.20;99.90;;;;;;5073211;28;20079;-44
2022/01/04 08:37:22;;;;;;;53.53;25.02;;;7.20;99.90;;;;;;5073481;28;20069;-43
2022/01/04 08:39:48;;;;;;;49.70;25.27;;;8.30;99.90;;;;;;5072994;28;20056;-44
2022/01/04 08:42:14;;;;;;;53.33;25.88;;;7.20;99.90;;;;;;5073327;28;20052;-42
2022/01/04 08:44:40;;;;;;;64.22;28.95;;;7.20;99.90;;;;;;5073640;28;20479;-43
2022/01/04 08:47:10;;;;;;;80.28;30.17;;;7.70;99.90;;;;;;5073651;28;20044;-43
2022/01/04 08:49:36;;;;;;;21.10;8.15;;;8.20;99.90;;;;;;5074016;28;20410;-43
2022/01/04 08:52:04;;;;;;;13.98;5.90;;;7.10;99.90;;;;;;5073367;28;20383;-43
2022/01/04 08:54:29;;;;;;;21.17;7.72;;;6.90;99.90;;;;;;5073973;28;20049;-43
2022/01/04 08:56:55;;;;;;;15.95;6.18;;;6.60;99.90;;;;;;5073352;28;20037;-44
2022/01/04 08:59:21;;;;;;;20.63;7.13;;;6.60;99.90;;;;;;5073117;28;20390;-43
2022/01/04 09:01:47;;;;;;;29.50;10.63;;;7.20;99.90;;;;;;5072953;28;20040;-42
2022/01/04 09:04:13;;;;;;;34.03;12.50;;;6.30;99.90;;;;;;5071086;28;20045;-43
2022/01/04 09:06:39;;;;;;;37.47;14.23;;;6.50;99.90;;;;;;5072270;28;20483;-43
2022/01/04 09:09:05;;;;;;;41.13;15.32;;;6.50;99.90;;;;;;5072256;28;20045;-43
2022/01/04 09:11:31;;;;;;;50.53;17.77;;;6.40;99.90;;;;;;5072265;28;20076;-43
2022/01/04 09:19:25;;;;;;;50.25;17.05;;;6.60;99.90;;;;;;5070990;28;20055;-44
2022/01/04 09:21:51;;;;;;;38.10;14.35;;;6.60;99.90;;;;;;5072692;28;20419;-44
2022/01/04 09:24:17;;;;;;;32.88;12.07;;;6.40;99.90;;;;;;5071754;28;20040;-46
2022/01/04 09:26:43;;;;;;;32.17;10.57;;;6.60;99.90;;;;;;5072384;28;20036;-43
2022/01/04 09:29:09;;;;;;;25.70;8.57;;;6.60;99.90;;;;;;5037094;28;20398;-44
2022/01/04 09:31:34;;;;;;;17.98;5.80;;;6.60;99.90;;;;;;5054101;28;20094;-43
2022/01/04 09:34:02;;;;;;;17.13;5.60;;;6.60;99.90;;;;;;5072268;28;20039;-43
2022/01/04 09:36:31;;;;;;;11.57;4.07;;;6.50;99.90;;;;;;5072155;28;21058;-43
2022/01/04 09:38:57;;;;;;;19.02;5.47;;;6.40;99.90;;;;;;5068810;28;20106;-43
2022/01/04 09:41:23;;;;;;;17.42;4.70;;;6.40;99.90;;;;;;5071715;28;20108;-42
2022/01/04 09:43:50;;;;;;;13.23;3.55;;;6.50;99.90;;;;;;5072515;28;20123;-42
2022/01/04 09:46:16;;;;;;;9.63;2.83;;;6.40;99.90;;;;;;5071940;28;20486;-43
2022/01/04 09:49:58;;;;;;;13.02;3.13;;;6.60;99.90;;;;;;5099282;27;20154;-39
2022/01/04 09:52:24;;;;;;;9.38;3.28;;;6.00;99.90;;;;;;5053404;27;20424;-45
2022/01/04 09:54:53;;;;;;;16.10;3.83;;;7.00;99.90;;;;;;5050270;28;20056;-44
2022/01/04 09:57:20;;;;;;;14.77;4.10;;;6.40;99.90;;;;;;5048131;28;20032;-42
2022/01/04 09:59:46;;;;;;;20.13;4.60;;;7.00;99.90;;;;;;5049280;28;20055;-44
2022/01/04 10:02:15;;;;;;;23.10;4.85;;;6.50;99.90;;;;;;5054941;28;20056;-41
2022/01/04 10:04:41;;;;;;;21.45;5.07;;;6.50;99.90;;;;;;5058243;28;20143;-45
2022/01/04 10:07:08;;;;;;;25.77;6.65;;;6.50;99.90;;;;;;5058608;28;21086;-55
2022/01/04 10:09:46;;;;;;;26.73;6.55;;;6.40;99.90;;;;;;5057527;28;20045;-55
2022/01/04 10:12:17;;;;;;;12.27;3.45;;;6.60;99.90;;;;;;5056489;28;20039;-41
2022/01/04 10:14:48;;;;;;;10.60;1.67;;;6.60;99.90;;;;;;5058972;28;20048;-43
2022/01/04 10:17:23;;;;;;;13.48;1.55;;;6.50;99.90;;;;;;5058584;28;20032;-44
2022/01/04 10:19:54;;;;;;;11.20;1.77;;;6.50;99.90;;;;;;5056847;28;20052;-41
2022/01/04 10:22:20;;;;;;;11.88;1.55;;;6.90;99.90;;;;;;5058820;28;20056;-40
2022/01/04 10:25:03;;;;;;;11.98;1.88;;;6.40;99.90;;;;;;5057263;28;20502;-44
2022/01/04 10:27:35;;;;;;;12.98;1.88;;;6.40;99.90;;;;;;5057208;28;20123;-43
2022/01/04 10:30:20;;;;;;;12.32;1.63;;;6.50;99.90;;;;;;5057749;28;20529;-48
2022/01/04 10:32:49;;;;;;;11.90;2.10;;;6.50;99.90;;;;;;5057065;28;20100;-41
2022/01/04 10:35:26;;;;;;;11.30;1.98;;;6.50;99.90;;;;;;5057593;28;20131;-48
2022/01/04 10:37:53;;;;;;;11.45;2.10;;;6.50;99.90;;;;;;5057606;28;20063;-43
2022/01/04 10:40:20;;;;;;;10.32;2.03;;;6.50;99.90;;;;;;5049719;28;20025;-45
2022/01/04 10:42:45;;;;;;;11.52;1.85;;;6.50;99.90;;;;;;5048045;28;20516;-41
2022/01/04 10:45:25;;;;;;;10.70;1.58;;;6.50;99.90;;;;;;5046247;28;20064;-43
2022/01/04 10:47:51;;;;;;;16.88;1.98;;;6.40;99.90;;;;;;5049858;28;20056;-47
2022/01/04 10:50:36;;;;;;;19.02;2.47;;;6.40;99.90;;;;;;5065035;28;20041;-57
2022/01/04 10:53:04;;;;;;;12.93;1.80;;;6.30;99.90;;;;;;5067378;28;20114;-41
2022/01/04 10:55:35;;;;;;;15.65;2.75;;;6.30;99.90;;;;;;5068671;28;20039;-41
2022/01/04 10:58:05;;;;;;;11.75;2.17;;;6.30;99.90;;;;;;5069003;28;20119;-43
2022/01/04 11:00:31;;;;;;;10.20;1.92;;;7.30;99.90;;;;;;5056828;28;20048;-52
2022/01/04 11:03:00;;;;;;;11.73;1.48;;;6.20;99.90;;;;;;5055574;28;20151;-50
2022/01/04 11:05:26;;;;;;;6.85;1.52;;;6.20;99.90;;;;;;5053235;28;20048;-57
2022/01/04 11:08:09;;;;;;;11.95;2.20;;;6.30;99.90;;;;;;5051840;28;20057;-45
2022/01/04 11:10:36;;;;;;;6.15;1.73;;;6.10;99.90;;;;;;5070073;28;20033;-46
2022/01/04 11:13:02;;;;;;;10.27;2.83;;;6.10;99.90;;;;;;5053833;28;20048;-59
2022/01/04 11:15:29;;;;;;;17.90;4.55;;;6.70;99.90;;;;;;5050644;28;20044;-48
2022/01/04 11:17:58;;;;;;;9.23;3.08;;;6.10;99.90;;;;;;5053199;28;20102;-50
2022/01/04 11:20:25;;;;;;;11.35;2.72;;;6.10;99.90;;;;;;5053671;28;20495;-52
2022/01/04 11:22:50;;;;;;;6.53;1.40;;;6.10;99.90;;;;;;5055251;28;20029;-60
2022/01/04 11:25:21;;;;;;;5.75;0.90;;;7.20;99.90;;;;;;5051943;28;20742;-42
2022/01/04 11:27:47;;;;;;;3.70;0.68;;;6.10;99.90;;;;;;5053255;28;20063;-43
2022/01/04 11:30:41;;;;;;;9.35;1.50;;;6.60;99.90;;;;;;5052160;28;20127;-52
2022/01/04 11:33:28;;;;;;;6.72;0.90;;;6.10;99.90;;;;;;5053830;28;20487;-47
2022/01/04 11:35:55;;;;;;;8.68;0.90;;;6.10;99.90;;;;;;5055454;28;20383;-58
2022/01/04 11:38:36;;;;;;;4.45;0.70;;;6.10;99.90;;;;;;5055287;28;20044;-48
2022/01/04 11:41:02;;;;;;;5.47;0.40;;;6.10;99.90;;;;;;5053246;28;20112;-47
2022/01/04 11:43:34;;;;;;;4.03;0.63;;;6.10;99.90;;;;;;5053613;28;20516;-50
2022/01/04 11:46:01;;;;;;;3.80;0.32;;;6.20;99.90;;;;;;5054119;28;20036;-50
2022/01/04 11:48:27;;;;;;;5.97;0.80;;;6.30;99.90;;;;;;5051026;28;20068;-47
2022/01/04 11:50:58;;;;;;;8.52;1.33;;;6.30;99.90;;;;;;5052987;28;20041;-51
2022/01/04 11:53:24;;;;;;;5.38;0.60;;;6.30;99.90;;;;;;5052211;28;20032;-56
2022/01/04 11:55:52;;;;;;;6.60;0.60;;;6.30;99.90;;;;;;5051104;28;20857;-53
2022/01/04 11:58:20;;;;;;;3.88;0.32;;;7.60;99.90;;;;;;5057937;28;20048;-55
2022/01/04 12:01:01;;;;;;;2.70;0.38;;;6.30;99.90;;;;;;5050362;28;20071;-55
2022/01/04 12:03:44;;;;;;;4.45;0.38;;;6.30;99.90;;;;;;5052442;28;20444;-55
2022/01/04 12:06:12;;;;;;;3.78;0.30;;;6.20;99.90;;;;;;5051950;28;20041;-55
2022/01/04 12:08:49;;;;;;;2.50;0.20;;;6.10;99.90;;;;;;5052332;28;20049;-51
2022/01/04 12:11:19;;;;;;;3.53;0.20;;;5.90;99.90;;;;;;5051424;28;20383;-54
2022/01/04 12:14:04;;;;;;;1.90;0.40;;;6.30;99.90;;;;;;5049310;28;20062;-48
2022/01/04 12:16:43;;;;;;;3.70;0.20;;;5.80;99.90;;;;;;5048674;28;20051;-57
2022/01/04 12:19:15;;;;;;;4.90;0.20;;;5.70;99.90;;;;;;5049318;28;20032;-52
2022/01/04 12:21:48;;;;;;;7.43;0.80;;;5.60;99.90;;;;;;5053207;28;20048;-61
2022/01/04 12:24:22;;;;;;;7.00;0.30;;;5.60;99.90;;;;;;5050503;28;20824;-58
2022/01/04 12:26:48;;;;;;;6.35;0.30;;;5.50;99.90;;;;;;5051242;28;20033;-57
2022/01/04 12:29:18;;;;;;;20.10;0.85;;;5.50;99.90;;;;;;5052694;28;20097;-50
2022/01/04 12:31:45;;;;;;;7.28;0.30;;;5.50;99.90;;;;;;5052127;28;20044;-45
2022/01/04 12:34:23;;;;;;;12.88;0.70;;;5.50;99.90;;;;;;5049397;28;20037;-49
2022/01/04 12:36:49;;;;;;;12.13;0.52;;;5.40;99.90;;;;;;5053766;28;20078;-48
2022/01/04 12:39:19;;;;;;;6.72;0.30;;;5.40;99.90;;;;;;5052567;28;20047;-46
2022/01/04 12:41:47;;;;;;;7.55;0.52;;;6.20;99.90;;;;;;5053298;28;20047;-45
2022/01/04 12:44:22;;;;;;;9.27;0.43;;;5.40;99.90;;;;;;5050615;28;20048;-40
2022/01/04 12:46:48;;;;;;;6.53;0.30;;;5.40;99.90;;;;;;5050930;28;20049;-40
2022/01/04 12:49:17;;;;;;;6.22;0.30;;;5.90;99.90;;;;;;5051266;28;20045;-43
2022/01/04 12:51:47;;;;;;;6.97;0.30;;;5.70;99.90;;;;;;5052872;28;20522;-44